createdAt,value
2023-05-07T00:01:24.887Z,6.77
2023-05-07T00:03:51.615Z,6.77
2023-05-07T00:06:18.525Z,6.76
2023-05-07T00:08:45.452Z,6.77
2023-05-07T00:11:12.508Z,6.76
2023-05-07T00:13:39.212Z,6.75
2023-05-07T00:16:06.204Z,6.72
2023-05-07T00:18:32.933Z,6.69
2023-05-07T00:20:59.695Z,6.66
2023-05-07T00:23:26.390Z,6.61
2023-05-07T00:25:53.152Z,6.58
2023-05-07T00:28:19.847Z,6.55
2023-05-07T00:30:46.552Z,6.54
2023-05-07T00:33:13.243Z,6.55
2023-05-07T00:35:39.956Z,6.56
2023-05-07T00:38:06.813Z,6.58
2023-05-07T00:40:33.673Z,6.58
2023-05-07T00:43:00.979Z,6.57
2023-05-07T00:45:28.338Z,6.57
2023-05-07T00:47:58.990Z,6.57
2023-05-07T00:50:26.645Z,6.58
2023-05-07T00:52:53.384Z,6.58
2023-05-07T00:55:20.966Z,6.59
2023-05-07T00:57:47.760Z,6.59
2023-05-07T01:00:15.621Z,6.59
2023-05-07T01:02:42.817Z,6.57
2023-05-07T01:05:13.777Z,6.53
2023-05-07T01:07:41.263Z,6.48
2023-05-07T01:10:08.530Z,6.44
2023-05-07T01:12:35.782Z,6.42
2023-05-07T01:15:03.350Z,6.38
2023-05-07T01:17:30.065Z,6.34
2023-05-07T01:19:56.864Z,6.30
2023-05-07T01:22:37.542Z,6.26
2023-05-07T01:25:05.221Z,6.21
2023-05-07T01:27:32.180Z,6.19
2023-05-07T01:29:58.943Z,6.15
2023-05-07T01:32:39.595Z,6.10
2023-05-07T01:35:07.050Z,6.07
2023-05-07T01:37:33.987Z,6.04
2023-05-07T01:40:00.778Z,6.02
2023-05-07T01:42:27.613Z,5.99
2023-05-07T01:44:54.432Z,5.95
2023-05-07T01:47:21.123Z,5.90
2023-05-07T01:49:47.832Z,5.80
2023-05-07T01:52:14.522Z,5.72
2023-05-07T01:54:41.324Z,5.68
2023-05-07T01:57:08.145Z,5.66
2023-05-07T01:59:34.862Z,5.64
2023-05-07T02:02:01.787Z,5.63
2023-05-07T02:04:28.753Z,5.63
2023-05-07T02:06:55.529Z,5.63
2023-05-07T02:09:23.968Z,5.64
2023-05-07T02:11:51.355Z,5.65
2023-05-07T02:14:21.077Z,5.68
2023-05-07T02:16:47.941Z,5.69
2023-05-07T02:19:15.604Z,5.70
2023-05-07T02:21:42.668Z,5.70
2023-05-07T02:24:09.887Z,5.70
2023-05-07T02:26:36.625Z,5.70
2023-05-07T02:29:03.472Z,5.70
2023-05-07T02:31:30.261Z,5.69
2023-05-07T02:33:57.101Z,5.70
2023-05-07T02:36:24.110Z,5.69
2023-05-07T02:39:10.241Z,5.66
2023-05-07T02:41:36.958Z,5.65
2023-05-07T02:44:03.752Z,5.63
2023-05-07T02:46:31.105Z,5.62
2023-05-07T02:49:01.921Z,5.62
2023-05-07T02:51:28.595Z,5.63
2023-05-07T02:53:56.699Z,5.65
2023-05-07T02:56:23.660Z,5.68
2023-05-07T02:58:50.355Z,5.76
2023-05-07T03:01:18.053Z,5.80
2023-05-07T03:04:05.526Z,5.80
2023-05-07T03:06:32.520Z,5.81
2023-05-07T03:08:59.261Z,5.81
2023-05-07T03:11:26.364Z,5.83
2023-05-07T03:13:53.046Z,5.84
2023-05-07T03:16:20.164Z,5.87
2023-05-07T03:18:47.060Z,5.89
2023-05-07T03:21:13.832Z,5.91
2023-05-07T03:23:40.606Z,5.94
2023-05-07T03:26:08.324Z,5.96
2023-05-07T03:28:35.145Z,5.99
2023-05-07T03:31:03.632Z,6.01
2023-05-07T03:33:30.691Z,6.04
2023-05-07T03:35:57.495Z,6.05
2023-05-07T03:38:25.087Z,6.06
2023-05-07T03:40:51.887Z,6.09
2023-05-07T03:43:18.871Z,6.12
2023-05-07T03:45:49.618Z,6.13
2023-05-07T03:48:20.389Z,6.16
2023-05-07T03:50:48.784Z,6.18
2023-05-07T03:53:16.231Z,6.19
2023-05-07T03:55:43.172Z,6.19
2023-05-07T03:58:09.868Z,6.18
2023-05-07T04:00:39.485Z,6.20
2023-05-07T04:03:12.854Z,6.21
2023-05-07T04:05:39.854Z,6.20
2023-05-07T04:08:06.667Z,6.21
2023-05-07T04:10:39.526Z,6.21
2023-05-07T04:13:09.370Z,6.20
2023-05-07T04:15:36.886Z,6.20
2023-05-07T04:18:04.885Z,6.21
2023-05-07T04:20:32.022Z,6.23
2023-05-07T04:23:01.549Z,6.24
2023-05-07T04:25:28.564Z,6.26
2023-05-07T04:28:00.128Z,6.27
2023-05-07T04:30:27.650Z,6.28
2023-05-07T04:32:54.460Z,6.30
2023-05-07T04:35:21.535Z,6.32
2023-05-07T04:37:48.414Z,6.34
2023-05-07T04:40:15.257Z,6.35
2023-05-07T04:42:42.503Z,6.35
2023-05-07T04:45:11.268Z,6.35
2023-05-07T04:47:38.830Z,6.36
2023-05-07T04:50:07.514Z,6.38
2023-05-07T04:52:34.243Z,6.39
2023-05-07T04:55:01.830Z,6.40
2023-05-07T04:57:30.666Z,6.40
2023-05-07T04:59:58.094Z,6.39
2023-05-07T05:02:24.866Z,6.37
2023-05-07T05:04:51.895Z,6.36
2023-05-07T05:07:18.947Z,6.35
2023-05-07T05:09:46.195Z,6.36
2023-05-07T05:12:13.030Z,6.36
2023-05-07T05:14:39.803Z,6.35
2023-05-07T05:17:07.014Z,6.34
2023-05-07T05:19:34.248Z,6.36
2023-05-07T05:22:02.172Z,6.37
2023-05-07T05:24:29.904Z,6.34
2023-05-07T05:26:56.650Z,6.34
2023-05-07T05:29:23.676Z,6.35
2023-05-07T05:31:50.440Z,6.38
2023-05-07T05:34:20.610Z,6.40
2023-05-07T05:36:47.353Z,6.43
2023-05-07T05:39:15.161Z,6.45
2023-05-07T05:41:41.910Z,6.48
2023-05-07T05:44:08.947Z,6.51
2023-05-07T05:46:37.274Z,6.54
2023-05-07T05:49:04.416Z,6.57
2023-05-07T05:51:31.707Z,6.60
2023-05-07T05:53:58.498Z,6.60
2023-05-07T05:56:25.634Z,6.61
2023-05-07T05:58:52.510Z,6.61
2023-05-07T06:01:20.015Z,6.62
2023-05-07T06:03:47.726Z,6.63
2023-05-07T06:06:15.602Z,6.64
2023-05-07T06:08:43.028Z,6.63
2023-05-07T06:11:10.384Z,6.63
2023-05-07T06:13:37.949Z,6.63
2023-05-07T06:16:05.179Z,6.64
2023-05-07T06:18:32.471Z,6.66
2023-05-07T06:20:59.274Z,6.67
2023-05-07T06:23:28.400Z,6.69
2023-05-07T06:25:55.379Z,6.73
2023-05-07T06:28:25.154Z,6.78
2023-05-07T06:30:52.287Z,6.81
2023-05-07T06:33:20.695Z,6.83
2023-05-07T06:35:47.457Z,6.85
2023-05-07T06:38:14.196Z,6.85
2023-05-07T06:40:41.455Z,6.87
2023-05-07T06:43:08.143Z,6.87
2023-05-07T06:45:42.192Z,6.86
2023-05-07T06:48:09.755Z,6.85
2023-05-07T06:50:44.848Z,6.86
2023-05-07T06:53:11.684Z,7.09
2023-05-07T06:55:39.312Z,7.20
2023-05-07T06:58:07.053Z,7.21
2023-05-07T07:00:33.888Z,7.20
2023-05-07T07:03:01.594Z,7.17
2023-05-07T07:05:28.945Z,7.12
2023-05-07T07:07:56.681Z,7.09
2023-05-07T07:10:23.493Z,7.08
2023-05-07T07:12:51.011Z,7.09
2023-05-07T07:15:17.877Z,7.07
2023-05-07T07:17:45.377Z,7.03
2023-05-07T07:20:12.911Z,7.01
2023-05-07T07:22:40.998Z,6.99
2023-05-07T07:25:08.256Z,6.99
2023-05-07T07:27:35.031Z,6.97
2023-05-07T07:30:01.805Z,6.98
2023-05-07T07:32:30.532Z,6.98
2023-05-07T07:34:57.377Z,6.97
2023-05-07T07:37:26.651Z,6.97
2023-05-07T07:39:53.834Z,6.99
2023-05-07T07:42:22.024Z,7.00
2023-05-07T07:44:49.426Z,7.00
2023-05-07T07:47:16.424Z,7.02
2023-05-07T07:49:43.794Z,7.05
2023-05-07T07:52:10.575Z,7.07
2023-05-07T07:54:37.364Z,7.10
2023-05-07T07:57:04.328Z,7.12
2023-05-07T07:59:32.453Z,7.13
2023-05-07T08:01:59.340Z,7.12
2023-05-07T08:04:27.778Z,7.13
2023-05-07T08:06:55.669Z,7.13
2023-05-07T08:09:22.497Z,7.14
2023-05-07T08:11:49.301Z,7.13
2023-05-07T08:14:16.882Z,7.12
2023-05-07T08:16:45.672Z,7.11
2023-05-07T08:19:12.545Z,7.11
2023-05-07T08:21:42.347Z,7.12
2023-05-07T08:24:10.051Z,7.10
2023-05-07T08:26:37.415Z,7.10
2023-05-07T08:29:04.143Z,7.13
2023-05-07T08:31:30.890Z,7.16
2023-05-07T08:33:58.649Z,7.17
2023-05-07T08:36:26.636Z,7.19
2023-05-07T08:38:53.981Z,7.21
2023-05-07T08:41:21.917Z,7.25
2023-05-07T08:43:50.455Z,7.27
2023-05-07T08:46:18.824Z,7.28
2023-05-07T08:48:46.671Z,7.29
2023-05-07T08:51:17.462Z,7.32
2023-05-07T08:53:44.292Z,7.33
2023-05-07T08:56:13.763Z,7.35
2023-05-07T08:58:40.807Z,7.37
2023-05-07T09:01:14.221Z,7.41
2023-05-07T09:03:41.827Z,7.46
2023-05-07T09:06:08.656Z,7.48
2023-05-07T09:08:36.136Z,7.48
2023-05-07T09:11:03.450Z,7.48
2023-05-07T09:13:30.607Z,7.48
2023-05-07T09:15:57.874Z,7.48
2023-05-07T09:18:25.654Z,7.48
2023-05-07T09:20:52.793Z,7.46
2023-05-07T09:23:21.198Z,7.45
2023-05-07T09:25:48.061Z,7.44
2023-05-07T09:28:25.736Z,7.44
2023-05-07T09:30:52.491Z,7.45
2023-05-07T09:33:19.705Z,7.45
2023-05-07T09:35:52.360Z,7.47
2023-05-07T09:38:19.117Z,7.49
2023-05-07T09:40:45.819Z,7.50
2023-05-07T09:43:14.501Z,7.53
2023-05-07T09:45:46.100Z,7.57
2023-05-07T09:48:12.981Z,7.62
2023-05-07T09:50:49.529Z,7.68
2023-05-07T09:53:17.250Z,7.75
2023-05-07T09:55:44.453Z,7.79
2023-05-07T09:58:12.474Z,7.82
2023-05-07T10:00:39.278Z,7.85
2023-05-07T10:03:08.027Z,7.87
2023-05-07T10:05:41.435Z,7.87
2023-05-07T10:08:08.705Z,7.86
2023-05-07T10:10:35.737Z,7.86
2023-05-07T10:13:03.097Z,7.86
2023-05-07T10:15:32.871Z,7.86
2023-05-07T10:18:00.018Z,7.94
2023-05-07T10:20:27.079Z,7.99
2023-05-07T10:22:54.948Z,7.98
2023-05-07T10:25:27.130Z,8.00
2023-05-07T10:27:54.667Z,8.01
2023-05-07T10:30:47.639Z,8.01
2023-05-07T10:33:15.248Z,8.00
2023-05-07T10:35:44.271Z,8.00
2023-05-07T10:38:11.417Z,7.99
2023-05-07T10:40:39.578Z,7.97
2023-05-07T10:43:09.466Z,8.00
2023-05-07T10:46:15.593Z,8.04
2023-05-07T10:49:07.335Z,8.06
2023-05-07T10:52:18.277Z,8.10
2023-05-07T10:55:19.938Z,8.14
2023-05-07T10:57:52.744Z,8.18
2023-05-07T11:03:02.939Z,8.25
2023-05-07T11:05:37.545Z,8.23
2023-05-07T11:08:24.732Z,8.18
2023-05-07T11:11:05.094Z,8.16
2023-05-07T11:13:45.849Z,8.16
2023-05-07T11:16:51.095Z,8.15
2023-05-07T11:19:51.091Z,8.13
2023-05-07T11:22:34.081Z,8.14
2023-05-07T11:25:09.044Z,8.21
2023-05-07T11:27:36.082Z,8.28
2023-05-07T11:30:02.888Z,8.32
2023-05-07T11:32:31.727Z,8.32
2023-05-07T11:34:59.784Z,8.31
2023-05-07T11:37:27.829Z,8.29
2023-05-07T11:40:08.834Z,8.26
2023-05-07T11:42:38.366Z,8.24
2023-05-07T11:45:06.893Z,8.19
2023-05-07T11:47:34.224Z,8.14
2023-05-07T11:50:12.076Z,8.07
2023-05-07T11:52:40.246Z,8.01
2023-05-07T11:55:07.939Z,7.99
2023-05-07T11:57:35.670Z,7.95
2023-05-07T12:00:06.391Z,7.88
2023-05-07T12:02:43.733Z,7.81
2023-05-07T12:05:11.069Z,7.72
2023-05-07T12:07:38.095Z,7.65
2023-05-07T12:10:08.356Z,7.56
2023-05-07T12:12:47.247Z,7.49
2023-05-07T12:15:17.132Z,7.43
2023-05-07T12:17:44.417Z,7.38
2023-05-07T12:20:11.571Z,7.35
2023-05-07T12:22:38.277Z,7.34
2023-05-07T12:25:05.387Z,7.35
2023-05-07T12:27:32.189Z,7.33
2023-05-07T12:30:00.050Z,7.33
2023-05-07T12:32:26.824Z,7.33
2023-05-07T12:34:53.598Z,7.31
2023-05-07T12:37:24.805Z,7.28
2023-05-07T12:40:09.102Z,7.26
2023-05-07T12:42:40.961Z,7.23
2023-05-07T12:45:12.243Z,7.20
2023-05-07T12:47:39.248Z,7.16
2023-05-07T12:50:07.371Z,7.11
2023-05-07T12:52:34.857Z,7.08
2023-05-07T12:55:08.269Z,7.05
2023-05-07T12:57:46.987Z,7.04
2023-05-07T13:00:14.413Z,7.06
2023-05-07T13:02:42.618Z,7.06
2023-05-07T13:05:09.984Z,7.06
2023-05-07T13:07:38.251Z,7.06
2023-05-07T13:10:09.226Z,7.04
2023-05-07T13:12:36.161Z,7.04
2023-05-07T13:15:02.987Z,7.04
2023-05-07T13:17:31.812Z,7.04
2023-05-07T13:19:58.636Z,7.05
2023-05-07T13:22:25.390Z,7.06
2023-05-07T13:24:52.252Z,7.04
2023-05-07T13:27:20.316Z,7.03
2023-05-07T13:29:47.019Z,7.01
2023-05-07T13:32:13.858Z,7.00
2023-05-07T13:34:40.764Z,6.98
2023-05-07T13:37:11.292Z,6.99
2023-05-07T13:39:38.516Z,7.04
2023-05-07T13:42:05.506Z,7.11
2023-05-07T13:44:32.292Z,7.12
2023-05-07T13:46:59.000Z,7.09
2023-05-07T13:49:25.814Z,7.03
2023-05-07T13:51:52.671Z,6.99
2023-05-07T13:54:19.509Z,6.91
2023-05-07T13:56:46.367Z,6.81
2023-05-07T13:59:15.433Z,6.73
2023-05-07T14:01:42.327Z,6.66
2023-05-07T14:04:09.129Z,6.58
2023-05-07T14:06:35.957Z,6.48
2023-05-07T14:09:02.838Z,6.39
2023-05-07T14:11:29.762Z,6.31
2023-05-07T14:13:57.872Z,6.25
2023-05-07T14:16:24.671Z,6.18
2023-05-07T14:18:51.486Z,6.14
2023-05-07T14:21:18.207Z,6.09
2023-05-07T14:23:44.908Z,6.04
2023-05-07T14:26:11.743Z,5.96
2023-05-07T14:28:40.600Z,5.90
2023-05-07T14:31:07.660Z,5.84
2023-05-07T14:33:34.777Z,5.79
2023-05-07T14:36:01.525Z,5.74
2023-05-07T14:38:28.354Z,5.72
2023-05-07T14:40:56.865Z,5.71
2023-05-07T14:43:23.881Z,5.70
2023-05-07T14:45:51.178Z,5.68
2023-05-07T14:48:21.017Z,5.65
2023-05-07T14:50:49.192Z,5.62
2023-05-07T14:53:16.684Z,5.60
2023-05-07T14:55:43.580Z,5.59
2023-05-07T14:58:11.633Z,5.59
2023-05-07T15:00:38.443Z,5.59
2023-05-07T15:03:10.912Z,5.57
2023-05-07T15:05:38.924Z,5.53
2023-05-07T15:08:06.138Z,5.49
2023-05-07T15:10:41.966Z,5.48
2023-05-07T15:13:10.132Z,5.48
2023-05-07T15:15:39.661Z,5.49
2023-05-07T15:18:06.498Z,5.47
2023-05-07T15:20:36.499Z,5.43
2023-05-07T15:23:05.836Z,5.39
2023-05-07T15:25:34.510Z,5.34
2023-05-07T15:28:01.326Z,5.29
2023-05-07T15:30:28.400Z,5.25
2023-05-07T15:32:55.204Z,5.22
2023-05-07T15:35:23.000Z,5.20
2023-05-07T15:37:56.611Z,5.18
2023-05-07T15:40:23.412Z,5.16
2023-05-07T15:42:50.174Z,5.15
2023-05-07T15:45:17.048Z,5.13
2023-05-07T15:47:43.983Z,5.10
2023-05-07T15:50:11.126Z,5.08
2023-05-07T15:52:39.096Z,5.08
2023-05-07T15:55:07.372Z,5.07
2023-05-07T15:57:34.140Z,5.07
2023-05-07T16:00:00.911Z,5.10
2023-05-07T16:02:27.886Z,5.10
2023-05-07T16:04:54.698Z,5.10
2023-05-07T16:07:21.458Z,5.07
2023-05-07T16:09:48.220Z,5.03
2023-05-07T16:12:14.938Z,4.99
2023-05-07T16:14:41.688Z,4.96
2023-05-07T16:17:08.514Z,4.96
2023-05-07T16:19:35.336Z,4.95
2023-05-07T16:22:02.138Z,4.94
2023-05-07T16:24:28.897Z,4.95
2023-05-07T16:26:55.926Z,4.99
2023-05-07T16:29:23.279Z,5.02
2023-05-07T16:31:50.013Z,5.03
2023-05-07T16:34:16.901Z,5.04
2023-05-07T16:36:43.694Z,5.06
2023-05-07T16:39:10.577Z,5.07
2023-05-07T16:41:38.131Z,5.08
2023-05-07T16:44:04.911Z,5.10
2023-05-07T16:46:32.292Z,5.13
2023-05-07T16:48:59.072Z,5.15
2023-05-07T16:51:26.076Z,5.16
2023-05-07T16:53:53.117Z,5.18
2023-05-07T16:56:19.884Z,5.18
2023-05-07T16:58:46.605Z,5.19
2023-05-07T17:01:15.288Z,5.17
2023-05-07T17:03:42.140Z,5.15
2023-05-07T17:06:14.070Z,5.13
2023-05-07T17:08:43.091Z,5.12
2023-05-07T17:11:10.437Z,5.11
2023-05-07T17:13:37.235Z,5.10
2023-05-07T17:16:04.405Z,5.10
2023-05-07T17:18:31.144Z,5.09
2023-05-07T17:20:57.900Z,5.08
2023-05-07T17:23:24.608Z,5.07
2023-05-07T17:25:51.333Z,5.08
2023-05-07T17:28:18.264Z,5.08
2023-05-07T17:30:46.523Z,5.07
2023-05-07T17:33:20.691Z,5.07
2023-05-07T17:35:48.115Z,5.08
2023-05-07T17:38:14.880Z,5.09
2023-05-07T17:40:41.645Z,5.10
2023-05-07T17:43:08.363Z,5.11
2023-05-07T17:45:36.022Z,5.09
2023-05-07T17:48:03.577Z,5.10
2023-05-07T17:50:30.459Z,5.12
2023-05-07T17:52:57.293Z,5.14
2023-05-07T17:55:24.033Z,5.15
2023-05-07T17:57:50.790Z,5.17
2023-05-07T18:00:17.719Z,5.17
2023-05-07T18:02:44.547Z,5.17
2023-05-07T18:05:11.764Z,5.19
2023-05-07T18:07:38.467Z,5.20
2023-05-07T18:10:05.637Z,5.21
2023-05-07T18:12:32.341Z,5.22
2023-05-07T18:14:59.096Z,5.24
2023-05-07T18:17:26.922Z,5.25
2023-05-07T18:19:55.131Z,5.27
2023-05-07T18:22:22.615Z,5.30
2023-05-07T18:24:49.616Z,5.32
2023-05-07T18:27:16.450Z,5.32
2023-05-07T18:29:43.240Z,5.33
2023-05-07T18:32:10.063Z,5.35
2023-05-07T18:34:36.854Z,5.37
2023-05-07T18:37:03.656Z,5.39
2023-05-07T18:39:31.528Z,5.41
2023-05-07T18:41:58.889Z,5.43
2023-05-07T18:44:25.613Z,5.45
2023-05-07T18:46:52.320Z,5.46
2023-05-07T18:49:19.162Z,5.47
2023-05-07T18:51:45.866Z,5.48
2023-05-07T18:54:12.620Z,5.51
2023-05-07T18:56:39.413Z,5.53
2023-05-07T18:59:06.147Z,5.56
2023-05-07T19:01:35.258Z,5.59
2023-05-07T19:04:05.189Z,5.61
2023-05-07T19:06:33.704Z,5.62
2023-05-07T19:09:00.651Z,5.64
2023-05-07T19:11:27.522Z,5.67
2023-05-07T19:13:54.390Z,5.68
2023-05-07T19:16:21.256Z,5.66
2023-05-07T19:18:48.146Z,5.64
2023-05-07T19:21:14.947Z,5.64
2023-05-07T19:23:42.183Z,5.65
2023-05-07T19:26:10.071Z,5.67
2023-05-07T19:28:45.315Z,5.69
2023-05-07T19:31:21.893Z,5.71
2023-05-07T19:33:48.715Z,5.74
2023-05-07T19:36:17.374Z,5.77
2023-05-07T19:38:45.187Z,5.80
2023-05-07T19:41:12.464Z,5.81
2023-05-07T19:43:39.674Z,5.83
2023-05-07T19:46:06.833Z,5.83
2023-05-07T19:48:33.585Z,5.82
2023-05-07T19:51:00.436Z,5.82
2023-05-07T19:53:27.443Z,5.80
2023-05-07T19:56:04.242Z,5.80
2023-05-07T19:58:31.023Z,5.80
2023-05-07T20:00:57.704Z,5.82
2023-05-07T20:03:24.615Z,5.82
2023-05-07T20:05:51.693Z,5.84
2023-05-07T20:08:18.474Z,5.86
2023-05-07T20:10:45.418Z,5.88
2023-05-07T20:13:12.289Z,5.90
2023-05-07T20:15:39.176Z,5.92
2023-05-07T20:18:06.043Z,5.93
2023-05-07T20:20:32.853Z,5.95
2023-05-07T20:22:59.753Z,5.98
2023-05-07T20:25:26.642Z,6.01
2023-05-07T20:27:53.419Z,6.02
2023-05-07T20:30:20.535Z,6.02
2023-05-07T20:32:47.338Z,6.00
2023-05-07T20:35:14.346Z,5.99
2023-05-07T20:37:41.166Z,5.97
2023-05-07T20:40:08.470Z,5.96
2023-05-07T20:42:36.259Z,5.96
2023-05-07T20:45:04.099Z,5.95
2023-05-07T20:47:32.905Z,5.96
2023-05-07T20:49:59.798Z,5.97
2023-05-07T20:52:26.624Z,5.96
2023-05-07T20:54:53.405Z,5.96
2023-05-07T20:57:20.228Z,5.96
2023-05-07T20:59:46.969Z,5.96
2023-05-07T21:02:13.694Z,5.94
2023-05-07T21:04:40.639Z,5.94
2023-05-07T21:07:07.579Z,5.94
2023-05-07T21:09:34.390Z,5.95
2023-05-07T21:12:01.601Z,5.94
2023-05-07T21:14:28.329Z,5.96
2023-05-07T21:16:55.102Z,5.96
2023-05-07T21:19:21.902Z,5.97
2023-05-07T21:21:48.811Z,5.98
2023-05-07T21:24:15.635Z,5.98
2023-05-07T21:26:42.514Z,5.97
2023-05-07T21:29:09.235Z,5.95
2023-05-07T21:31:36.140Z,5.94
2023-05-07T21:34:02.912Z,5.92
2023-05-07T21:36:29.699Z,5.91
2023-05-07T21:38:56.439Z,5.92
2023-05-07T21:41:23.209Z,5.92
2023-05-07T21:43:49.959Z,5.93
2023-05-07T21:46:16.774Z,5.93
2023-05-07T21:48:43.573Z,5.94
2023-05-07T21:51:10.345Z,5.94
2023-05-07T21:53:37.297Z,5.93
2023-05-07T21:56:05.106Z,5.92
2023-05-07T21:58:32.165Z,5.91
2023-05-07T22:00:59.895Z,5.90
2023-05-07T22:03:26.931Z,5.87
2023-05-07T22:05:53.669Z,5.85
2023-05-07T22:08:20.601Z,5.84
2023-05-07T22:10:47.405Z,5.84
2023-05-07T22:13:14.151Z,5.86
2023-05-07T22:15:49.543Z,5.87
2023-05-07T22:18:20.264Z,5.88
2023-05-07T22:20:46.983Z,5.88
2023-05-07T22:23:13.727Z,5.87
2023-05-07T22:25:40.525Z,5.86
2023-05-07T22:28:07.196Z,5.86
2023-05-07T22:30:33.897Z,5.87
2023-05-07T22:33:00.764Z,5.89
2023-05-07T22:35:27.730Z,5.88
2023-05-07T22:37:54.432Z,5.87
2023-05-07T22:40:21.357Z,5.85
2023-05-07T22:42:48.082Z,5.84
2023-05-07T22:45:14.756Z,5.83
2023-05-07T22:47:41.621Z,5.83
2023-05-07T22:50:08.593Z,5.83
2023-05-07T22:52:35.326Z,5.82
2023-05-07T22:55:02.149Z,5.79
2023-05-07T22:57:28.980Z,5.77
2023-05-07T22:59:56.079Z,5.74
2023-05-07T23:02:23.042Z,5.72
2023-05-07T23:04:49.945Z,5.71
2023-05-07T23:07:16.640Z,5.70
2023-05-07T23:09:43.371Z,5.70
2023-05-07T23:12:10.068Z,5.70
2023-05-07T23:14:36.794Z,5.70
2023-05-07T23:17:03.770Z,5.69
2023-05-07T23:19:30.575Z,5.68
2023-05-07T23:21:57.322Z,5.66
2023-05-07T23:24:24.034Z,5.64
2023-05-07T23:26:50.739Z,5.64
2023-05-07T23:29:17.503Z,5.63
2023-05-07T23:31:44.610Z,5.62
2023-05-07T23:34:11.325Z,5.62
2023-05-07T23:36:38.024Z,5.61
2023-05-07T23:39:04.802Z,5.61
2023-05-07T23:41:31.501Z,5.60
2023-05-07T23:43:58.197Z,5.59
2023-05-07T23:46:25.052Z,5.57
2023-05-07T23:48:51.777Z,5.58
2023-05-07T23:51:18.496Z,5.59
2023-05-07T23:53:45.858Z,5.58
2023-05-07T23:56:12.640Z,5.56
2023-05-07T23:58:39.313Z,5.55
